Time,TemperatureF,DewpointF,PressureIn,WindDirection,WindDirectionDegrees,WindSpeedMPH,WindSpeedGustMPH,Humidity,HourlyPrecipIn,Conditions,Clouds,dailyrainin,SoftwareType,DateUTC
2013-06-10 00:22:00,55.0,53.0,29.88,WSW,249,6.0,-999.0,94,-99.99,,,-99.99,,2013-06-10 07:22:00,
2013-06-10 00:32:00,55.0,53.0,29.88,WSW,249,6.0,-999.0,94,-99.99,,,-99.99,,2013-06-10 07:32:00,
2013-06-10 00:42:00,55.0,53.0,29.88,WSW,249,6.0,-999.0,94,-99.99,,,-99.99,,2013-06-10 07:42:00,
2013-06-10 00:52:00,55.0,53.0,29.88,WSW,249,6.0,-999.0,94,-99.99,,,-99.99,,2013-06-10 07:52:00,
2013-06-10 01:02:00,55.0,53.0,29.88,WSW,249,6.0,-999.0,94,-99.99,,,-99.99,,2013-06-10 08:02:00,
2013-06-10 02:22:00,54.0,53.0,29.85,SW,232,6.0,-999.0,95,-99.99,,,-99.99,,2013-06-10 09:22:00,
2013-06-10 02:32:00,54.0,53.0,29.85,SW,232,6.0,-999.0,95,-99.99,,,-99.99,,2013-06-10 09:32:00,
2013-06-10 02:43:00,54.0,53.0,29.85,SW,232,6.0,-999.0,95,-99.99,,,-99.99,,2013-06-10 09:43:00,
2013-06-10 02:53:00,54.0,53.0,29.85,SW,232,6.0,-999.0,95,-99.99,,,-99.99,,2013-06-10 09:53:00,
2013-06-10 03:02:00,54.0,53.0,29.85,SW,232,6.0,-999.0,95,-99.99,,,-99.99,,2013-06-10 10:02:00,
2013-06-10 04:22:00,54.0,53.0,29.85,West,279,5.0,-999.0,95,-99.99,,,-99.99,,2013-06-10 11:22:00,
2013-06-10 04:32:00,54.0,53.0,29.85,West,279,5.0,-999.0,95,-99.99,,,-99.99,,2013-06-10 11:32:00,
2013-06-10 04:42:00,54.0,53.0,29.85,West,279,5.0,-999.0,95,-99.99,,,-99.99,,2013-06-10 11:42:00,
2013-06-10 04:52:00,54.0,53.0,29.85,West,279,5.0,-999.0,95,-99.99,,,-99.99,,2013-06-10 11:52:00,
2013-06-10 05:02:00,54.0,53.0,29.85,West,279,5.0,-999.0,95,-99.99,,,-99.99,,2013-06-10 12:02:00,
2013-06-10 06:22:00,55.0,52.0,29.85,SSE,165,4.0,-999.0,89,-99.99,,,-99.99,,2013-06-10 13:22:00,
2013-06-10 06:32:00,55.0,52.0,29.85,SSE,165,4.0,-999.0,89,-99.99,,,-99.99,,2013-06-10 13:32:00,
2013-06-10 06:42:00,55.0,52.0,29.85,SSE,165,4.0,-999.0,89,-99.99,,,-99.99,,2013-06-10 13:42:00,
2013-06-10 06:52:00,55.0,52.0,29.85,SSE,165,4.0,-999.0,89,-99.99,,,-99.99,,2013-06-10 13:52:00,
2013-06-10 07:02:00,55.0,52.0,29.85,SSE,165,4.0,-999.0,89,-99.99,,,-99.99,,2013-06-10 14:02:00,
2013-06-10 08:22:00,56.0,52.0,29.88,ESE,112,3.0,-999.0,86,-99.99,,,-99.99,,2013-06-10 15:22:00,
2013-06-10 08:33:00,56.0,52.0,29.88,ESE,112,3.0,-999.0,86,-99.99,,,-99.99,,2013-06-10 15:33:00,
2013-06-10 08:43:00,56.0,52.0,29.88,ESE,112,3.0,-999.0,86,-99.99,,,-99.99,,2013-06-10 15:43:00,
2013-06-10 08:53:00,56.0,52.0,29.88,ESE,112,3.0,-999.0,86,-99.99,,,-99.99,,2013-06-10 15:53:00,
2013-06-10 09:02:00,56.0,52.0,29.88,ESE,112,3.0,-999.0,86,-99.99,,,-99.99,,2013-06-10 16:02:00,
2013-06-10 10:14:00,58.0,52.0,29.90,SSW,194,5.0,-999.0,81,-99.99,,,-99.99,,2013-06-10 17:14:00,
2013-06-10 10:27:00,58.0,52.0,29.90,SSW,194,5.0,-999.0,81,-99.99,,,-99.99,,2013-06-10 17:27:00,
2013-06-10 10:38:00,58.0,52.0,29.90,SSW,194,5.0,-999.0,81,-99.99,,,-99.99,,2013-06-10 17:38:00,
2013-06-10 10:48:00,58.0,52.0,29.90,SSW,194,5.0,-999.0,81,-99.99,,,-99.99,,2013-06-10 17:48:00,
2013-06-10 10:58:00,58.0,52.0,29.90,SSW,194,5.0,-999.0,81,-99.99,,,-99.99,,2013-06-10 17:58:00,
2013-06-10 12:23:00,63.0,54.0,29.94,SE,128,6.0,-999.0,72,-99.99,,,-99.99,,2013-06-10 19:23:00,
2013-06-10 12:33:00,63.0,54.0,29.94,SE,128,6.0,-999.0,72,-99.99,,,-99.99,,2013-06-10 19:33:00,
2013-06-10 12:43:00,63.0,54.0,29.94,SE,128,6.0,-999.0,72,-99.99,,,-99.99,,2013-06-10 19:43:00,
2013-06-10 12:53:00,63.0,54.0,29.94,SE,128,6.0,-999.0,72,-99.99,,,-99.99,,2013-06-10 19:53:00,
2013-06-10 13:02:00,63.0,54.0,29.94,SE,128,6.0,-999.0,72,-99.99,,,-99.99,,2013-06-10 20:02:00,
2013-06-10 14:23:00,61.0,53.0,29.93,SSW,198,11.0,-999.0,76,-99.99,,,-99.99,,2013-06-10 21:23:00,
2013-06-10 14:34:00,61.0,53.0,29.93,SSW,198,11.0,-999.0,76,-99.99,,,-99.99,,2013-06-10 21:34:00,
2013-06-10 14:43:00,61.0,53.0,29.93,SSW,198,11.0,-999.0,76,-99.99,,,-99.99,,2013-06-10 21:43:00,
2013-06-10 14:53:00,61.0,53.0,29.93,SSW,198,11.0,-999.0,76,-99.99,,,-99.99,,2013-06-10 21:53:00,
2013-06-10 15:02:00,61.0,53.0,29.93,SSW,198,11.0,-999.0,76,-99.99,,,-99.99,,2013-06-10 22:02:00,
2013-06-10 16:22:00,61.0,54.0,29.94,SSW,200,8.0,-999.0,78,-99.99,,,-99.99,,2013-06-10 23:22:00,
2013-06-10 16:32:00,61.0,54.0,29.94,SSW,200,8.0,-999.0,78,-99.99,,,-99.99,,2013-06-10 23:32:00,
2013-06-10 16:42:00,61.0,54.0,29.94,SSW,200,8.0,-999.0,78,-99.99,,,-99.99,,2013-06-10 23:42:00,
2013-06-10 16:52:00,61.0,54.0,29.94,SSW,200,8.0,-999.0,78,-99.99,,,-99.99,,2013-06-10 23:52:00,
2013-06-10 17:01:00,61.0,54.0,29.94,SSW,200,8.0,-999.0,78,-99.99,,,-99.99,,2013-06-11 00:01:00,
2013-06-10 18:22:00,59.0,54.0,29.91,WSW,238,9.0,-999.0,84,-99.99,,,-99.99,,2013-06-11 01:22:00,
2013-06-10 18:33:00,59.0,54.0,29.91,WSW,238,9.0,-999.0,84,-99.99,,,-99.99,,2013-06-11 01:33:00,
2013-06-10 18:42:00,59.0,54.0,29.91,WSW,238,9.0,-999.0,84,-99.99,,,-99.99,,2013-06-11 01:42:00,
2013-06-10 18:52:00,59.0,54.0,29.91,WSW,238,9.0,-999.0,84,-99.99,,,-99.99,,2013-06-11 01:52:00,
2013-06-10 19:02:00,59.0,54.0,29.91,WSW,238,9.0,-999.0,84,-99.99,,,-99.99,,2013-06-11 02:02:00,
2013-06-10 20:13:00,55.0,52.0,29.91,WSW,250,8.0,-999.0,89,-99.99,,,-99.99,,2013-06-11 03:13:00,
2013-06-10 20:22:00,55.0,52.0,29.91,WSW,250,8.0,-999.0,89,-99.99,,,-99.99,,2013-06-11 03:22:00,
2013-06-10 20:33:00,55.0,52.0,29.91,WSW,250,8.0,-999.0,89,-99.99,,,-99.99,,2013-06-11 03:33:00,
2013-06-10 20:43:00,55.0,52.0,29.91,WSW,250,8.0,-999.0,89,-99.99,,,-99.99,,2013-06-11 03:43:00,
2013-06-10 20:53:00,55.0,52.0,29.91,WSW,250,8.0,-999.0,89,-99.99,,,-99.99,,2013-06-11 03:53:00,
2013-06-10 21:02:00,55.0,52.0,29.91,WSW,250,8.0,-999.0,89,-99.99,,,-99.99,,2013-06-11 04:02:00,
2013-06-10 22:22:00,54.0,51.0,29.93,WSW,244,7.0,-999.0,91,-99.99,,,-99.99,,2013-06-11 05:22:00,
2013-06-10 22:32:00,54.0,51.0,29.93,WSW,244,7.0,-999.0,91,-99.99,,,-99.99,,2013-06-11 05:32:00,
2013-06-10 22:42:00,54.0,51.0,29.93,WSW,244,7.0,-999.0,91,-99.99,,,-99.99,,2013-06-11 05:42:00,
2013-06-10 22:52:00,54.0,51.0,29.93,WSW,244,7.0,-999.0,91,-99.99,,,-99.99,,2013-06-11 05:52:00,
2013-06-10 23:02:00,54.0,51.0,29.93,WSW,244,7.0,-999.0,91,-99.99,,,-99.99,,2013-06-11 06:02:00,